Latest Weather Observations for Mount Stuart (Defence)

IDQ60801

Issued at 8:42 pm EST Monday 17 December 2018 (issued every 10 minutes, with the page automatically refreshed every 10 minutes)

About weather observations | Map of weather stations | Latest weather observations for QLD | Other Formats
Station Details ID: 032195 Name: MOUNT STUART (DEFENCE) Lat: -19.41 Lon: 146.76 Height: 176.36 m
Data from the previous 72 hours. | See also: Recent months at Mount Stuart (Defence)
Date/Time
EST
Temp
°C
App
Temp
°C
Dew
Point
°C
Rel
Hum
%
Delta-T
°C
Wind Press
QNH
hPa
Press
MSL
hPa
Rain since
9am
mm
Dir  Spd
km/h
Gust
km/h
Spd
kts
Gust
kts
17/08:30pm 29.3 33.2 22.5 67 4.6 NE 6 7 3 4 - - 0.2
17/08:00pm 28.0 31.8 24.0 79 2.8 E 11 13 6 7 - - 0.2
17/07:30pm 28.8 32.3 23.5 73 3.7 ENE 11 15 6 8 - - 0.2
17/07:00pm 30.8 33.8 21.9 59 6.1 E 9 11 5 6 - - 0.2
17/06:30pm 32.5 34.6 20.1 48 8.3 SE 9 17 5 9 - - 0.2
17/06:00pm 34.0 36.6 20.0 43 9.4 SSW 6 11 3 6 - - 0.2
17/05:30pm 34.7 35.9 19.9 42 9.9 SSW 13 22 7 12 - - 0.2
17/05:00pm 35.0 35.8 19.0 39 10.6 SSW 13 20 7 11 - - 0.2
17/04:30pm 35.3 36.2 20.0 40 10.3 SSW 15 22 8 12 - - 0.2
17/04:00pm 35.2 35.9 19.6 40 10.4 SSW 15 22 8 12 - - 0.2
17/03:30pm 35.1 36.3 20.6 42 9.8 SSW 15 26 8 14 - - 0.2
17/03:00pm 35.5 35.9 20.6 41 10.1 SW 19 26 10 14 - - 0.2
17/02:30pm 35.1 36.7 21.4 45 9.4 SSW 15 24 8 13 - - 0.2
17/02:00pm 34.7 35.9 21.4 46 9.1 SSW 17 24 9 13 - - 0.2
17/01:30pm 35.1 36.7 22.1 47 9.0 SW 17 26 9 14 - - 0.2
17/01:00pm 33.5 36.1 22.0 51 7.9 SSW 11 20 6 11 - - 0.2
17/12:30pm 33.0 35.9 21.8 51 7.7 SSW 9 15 5 8 - - 0.2
17/12:00pm 31.6 34.6 20.8 52 7.3 SSW 6 9 3 5 - - 0.2
17/11:30am 31.6 35.3 22.3 57 6.4 SSE 6 13 3 7 - - 0.2
17/11:00am 30.8 33.5 21.3 57 6.4 S 9 19 5 10 - - 0.2
17/10:30am 30.9 33.9 21.9 58 6.1 SW 9 17 5 9 - - 0.2
17/10:00am 30.0 32.9 21.7 61 5.6 SSW 9 17 5 9 - - 0.2
17/09:30am 29.4 32.1 22.1 65 5.0 SSW 11 17 6 9 - - 0.2
17/09:00am 28.6 30.8 21.9 67 4.5 SW 13 20 7 11 - - 6.4
17/08:30am 28.1 30.3 21.9 69 4.2 SW 13 22 7 12 - - 6.4
17/08:00am 26.6 29.0 21.6 74 3.4 SW 11 19 6 10 - - 6.4
17/07:30am 25.5 28.2 21.4 78 2.7 SW 9 15 5 8 - - 6.4
17/07:00am 25.2 28.5 21.5 80 2.5 SSW 6 9 3 5 - - 6.4
17/06:30am 24.6 27.4 21.5 83 2.1 SSW 9 13 5 7 - - 6.4
17/06:00am 24.2 27.0 21.5 85 1.8 S 9 13 5 7 - - 6.4
17/05:30am 23.6 26.8 21.7 89 1.3 SE 7 13 4 7 - - 6.4
17/05:00am 23.6 26.7 21.5 88 1.4 SE 7 11 4 6 - - 6.4
17/04:30am 23.8 26.9 21.5 87 1.5 SSE 7 11 4 6 - - 6.4
17/04:00am 23.7 26.9 21.6 88 1.4 SSE 7 9 4 5 - - 6.4
17/03:30am 24.0 27.2 21.7 87 1.5 S 7 11 4 6 - - 6.4
17/03:00am 23.9 26.7 21.6 87 1.5 S 9 13 5 7 - - 6.4
17/02:30am 24.0 26.9 21.7 87 1.5 S 9 13 5 7 - - 6.4
17/02:00am 24.1 25.8 21.6 86 1.7 SSW 15 20 8 11 - - 6.4
17/01:30am 24.1 26.0 22.0 88 1.4 SSW 15 20 8 11 - - 6.4
17/01:00am 24.2 26.5 22.1 88 1.4 SSW 13 22 7 12 - - 6.4
17/12:30am 24.1 27.7 22.4 90 1.1 S 7 15 4 8 - - 6.4
17/12:00am 24.1 27.0 22.4 90 1.1 SSW 11 15 6 8 - - 6.4
 
Date/Time
EST
Temp
°C
App
Temp
°C
Dew
Point
°C
Rel
Hum
%
Delta-T
°C
Wind Press
QNH
hPa
Press
MSL
hPa
Rain since
9am
mm
Dir  Spd
km/h
Gust
km/h
Spd
kts
Gust
kts
16/11:30pm 24.1 26.8 22.2 89 1.3 SSW 11 17 6 9 - - 6.4
16/11:00pm 24.2 28.4 22.5 90 1.1 S 4 9 2 5 - - 6.4
16/10:30pm 24.4 28.1 22.3 88 1.4 S 6 9 3 5 - - 6.4
16/10:00pm 24.7 28.2 22.2 86 1.7 SSW 7 11 4 6 - - 6.4
16/09:30pm 24.8 27.5 22.1 85 1.8 SSW 11 17 6 9 - - 6.4
16/09:00pm 24.9 27.6 22.2 85 1.8 SSW 11 17 6 9 - - 6.4
16/08:30pm 25.2 27.2 22.3 84 2.0 SSW 15 26 8 14 - - 6.4
16/08:00pm 25.2 27.6 22.3 84 2.0 SW 13 20 7 11 - - 6.4
16/07:30pm 25.7 26.9 22.2 81 2.4 SSW 19 28 10 15 - - 6.4
16/07:00pm 26.0 27.8 22.5 81 2.4 SSW 17 24 9 13 - - 6.4
16/06:30pm 26.5 28.1 22.1 77 3.0 SSW 17 28 9 15 - - 6.4
16/06:00pm 26.9 27.2 22.3 76 3.1 SSW 24 33 13 18 - - 6.4
16/05:30pm 27.5 28.3 22.4 73 3.5 SSW 22 35 12 19 - - 6.4
16/05:00pm 28.5 30.2 23.0 72 3.8 SSW 19 30 10 16 - - 6.4
16/04:30pm 29.2 31.0 23.2 70 4.1 SW 19 28 10 15 - - 6.4
16/04:00pm 29.2 30.9 23.4 71 4.0 SW 20 28 11 15 - - 6.4
16/03:30pm 29.9 30.9 24.1 71 4.1 SSW 26 37 14 20 - - 6.4
16/03:00pm 29.6 32.1 24.5 74 3.6 SSW 19 28 10 15 - - 6.4
16/02:30pm 27.8 30.1 24.4 82 2.4 SW 20 32 11 17 - - 6.4
16/02:00pm 26.6 28.9 24.1 86 1.7 SSW 19 28 10 15 - - 6.4
16/01:30pm 26.1 29.7 25.6 97 0.4 SSW 17 24 9 13 - - 6.4
16/01:00pm 25.2 28.0 25.2 100 0.0 SSW 20 32 11 17 - - 6.4
16/12:30pm 24.6 27.0 24.6 100 0.0 SSW 20 35 11 19 - - 6.4
16/12:00pm 24.5 27.4 24.5 100 0.0 SW 17 24 9 13 - - 6.4
16/11:30am 23.4 26.4 23.4 100 0.0 SSW 13 20 7 11 - - 6.4
16/11:00am 23.6 25.4 23.6 100 0.0 SSW 20 30 11 16 - - 5.2
16/10:30am 23.4 24.3 23.4 100 0.0 SSW 24 33 13 18 - - 4.0
16/10:00am 24.2 27.7 24.2 100 0.0 SSW 13 22 7 12 - - 0.6
16/09:30am 24.0 26.0 24.0 100 0.0 SSW 20 28 11 15 - - 0.2
16/09:00am 23.9 25.9 23.9 100 0.0 SSW 20 32 11 17 - - 112.8
16/08:30am 24.1 26.2 24.1 100 0.0 S 20 30 11 16 - - 112.2
16/08:00am 24.0 26.6 24.0 100 0.0 S 17 28 9 15 - - 111.6
16/07:30am 24.1 26.8 24.1 100 0.0 SSE 17 24 9 13 - - 109.2
16/07:00am 24.0 27.0 24.0 100 0.0 S 15 20 8 11 - - 106.8
16/06:30am 24.0 26.6 24.0 100 0.0 SE 17 24 9 13 - - 104.4
16/06:00am 24.1 27.5 24.1 100 0.0 S 13 19 7 10 - - 102.8
16/05:30am 24.3 27.9 24.3 100 0.0 SSE 13 20 7 11 - - 101.8
16/05:00am 24.2 27.3 24.2 100 0.0 SE 15 22 8 12 - - 100.8
16/04:30am 24.0 27.4 24.0 100 0.0 ESE 13 22 7 12 - - 100.4
16/04:00am 24.2 28.5 24.2 100 0.0 SSE 9 17 5 9 - - 98.8
16/03:30am 24.1 27.9 24.1 100 0.0 ESE 11 17 6 9 - - 97.6
16/03:00am 23.9 26.1 23.9 100 0.0 E 19 26 10 14 - - 95.2
16/02:30am 23.9 27.6 23.9 100 0.0 ESE 11 22 6 12 - - 90.4
16/02:00am 23.8 27.8 23.8 100 0.0 SE 9 17 5 9 - - 87.0
16/01:30am 23.8 27.8 23.8 100 0.0 S 9 15 5 8 - - 83.2
16/01:00am 23.7 28.2 23.7 100 0.0 SE 6 9 3 5 - - 79.4
16/12:30am 23.6 27.9 23.6 100 0.0 SE 7 13 4 7 - - 73.2
16/12:00am 23.7 27.7 23.7 100 0.0 SE 9 15 5 8 - - 67.2
 
Date/Time
EST
Temp
°C
App
Temp
°C
Dew
Point
°C
Rel
Hum
%
Delta-T
°C
Wind Press
QNH
hPa
Press
MSL
hPa
Rain since
9am
mm
Dir  Spd
km/h
Gust
km/h
Spd
kts
Gust
kts
15/11:30pm 23.7 27.7 23.7 100 0.0 SE 9 17 5 9 - - 63.2
15/11:00pm 23.6 27.5 23.6 100 0.0 SE 9 15 5 8 - - 58.8
15/10:30pm 23.6 27.9 23.6 100 0.0 SE 7 11 4 6 - - 55.4
15/10:00pm 23.5 27.3 23.5 100 0.0 SSE 9 13 5 7 - - 52.6
15/09:30pm 23.4 27.8 23.4 100 0.0 S 6 17 3 9 - - 51.2
15/09:00pm 23.4 27.2 23.4 100 0.0 SSE 9 17 5 9 - - 46.6
15/08:30pm 23.8 28.4 23.8 100 0.0 SE 6 9 3 5 - - 43.8
15/08:00pm 23.5 27.3 23.5 100 0.0 ESE 9 15 5 8 - - 42.0
15/07:30pm 23.7 28.0 23.7 100 0.0 SSE 7 11 4 6 - - 39.4
15/07:00pm 23.7 27.7 23.7 100 0.0 SE 9 17 5 9 - - 37.6
15/06:30pm 23.8 27.8 23.8 100 0.0 E 9 13 5 7 - - 31.4
15/06:00pm 23.5 26.6 23.5 100 0.0 ESE 13 19 7 10 - - 25.6
15/05:30pm 23.3 26.3 23.3 100 0.0 E 13 20 7 11 - - 20.6
15/05:00pm 23.6 26.0 23.6 100 0.0 ENE 17 24 9 13 - - 18.0
15/04:30pm 24.4 28.8 24.4 100 0.0 E 9 13 5 7 - - 16.0
15/04:00pm 24.5 26.5 24.5 100 0.0 ENE 22 33 12 18 - - 13.4
15/03:30pm 25.1 31.5 24.9 99 0.1 CALM 0 6 0 3 - - 6.8
15/03:00pm 25.1 30.2 24.9 99 0.1 SW 7 15 4 8 - - 5.6
15/02:30pm 25.6 30.2 24.7 95 0.6 SSW 9 15 5 8 - - 2.0
15/02:00pm 26.2 30.7 23.9 87 1.6 SW 7 11 4 6 - - 0.4
15/01:30pm 27.7 32.0 23.7 79 2.8 SSE 7 13 4 7 - - 0.2
15/01:00pm 27.7 31.5 22.4 73 3.6 SSE 6 13 3 7 - - 0.2
15/12:30pm 28.5 31.7 23.0 72 3.8 SSE 11 19 6 10 - - 0.2
15/12:00pm 28.4 31.6 23.1 73 3.6 ESE 11 17 6 9 - - 0.2
15/11:30am 28.4 32.6 23.1 73 3.6 SE 6 9 3 5 - - 0.2
15/11:00am 29.4 33.5 22.9 68 4.5 SSE 6 11 3 6 - - 0.2
15/10:30am 28.9 33.9 23.8 74 3.5 SE 4 11 2 6 - - 0.0
15/10:00am 28.3 32.7 23.4 75 3.4 SE 6 11 3 6 - - 0.0
15/09:30am 27.4 32.9 24.1 82 2.3 SSE 2 6 1 3 - - 0.0
15/09:00am 26.4 30.9 23.9 86 1.7 SSW 7 11 4 6 - - 1.4
15/08:30am 26.6 31.4 24.4 88 1.5 S 7 13 4 7 - - 1.4
15/08:00am 25.3 31.9 25.3 100 0.0 CALM 0 4 0 2 - - 1.4
15/07:30am 25.0 30.2 24.8 99 0.1 WSW 6 9 3 5 - - 1.4
15/07:00am 25.1 31.3 24.6 97 0.3 CALM 0 0 0 0 - - 1.4
15/06:30am 25.1 31.1 24.2 95 0.6 CALM 0 0 0 0 - - 1.4
15/06:00am 25.6 31.0 23.3 87 1.6 CALM 0 0 0 0 - - 1.2
15/05:30am 25.5 30.8 23.0 86 1.7 CALM 0 0 0 0 - - 1.2
15/05:00am 25.3 30.6 23.0 87 1.6 CALM 0 0 0 0 - - 1.2
15/04:30am 25.3 30.9 23.5 90 1.2 CALM 0 0 0 0 - - 1.2
15/04:00am 25.5 31.0 23.4 88 1.4 CALM 0 0 0 0 - - 1.2
15/03:30am 25.9 31.1 22.8 83 2.1 CALM 0 0 0 0 - - 1.2
15/03:00am 25.5 29.9 23.4 88 1.4 ENE 6 7 3 4 - - 1.2
15/02:30am 25.5 30.0 23.6 89 1.3 ESE 6 7 3 4 - - 1.2
15/02:00am 25.6 30.2 23.8 90 1.2 SE 6 9 3 5 - - 1.2
15/01:30am 25.7 30.1 23.4 87 1.6 SE 6 9 3 5 - - 1.0
15/01:00am 25.3 31.3 24.3 94 0.7 CALM 0 0 0 0 - - 1.0
15/12:30am 25.8 30.9 22.7 83 2.1 CALM 0 0 0 0 - - 1.0
15/12:00am 25.5 30.7 22.8 85 1.8 CALM 0 0 0 0 - - 1.0
 
Date/Time
EST
Temp
°C
App
Temp
°C
Dew
Point
°C
Rel
Hum
%
Delta-T
°C
Wind Press
QNH
hPa
Press
MSL
hPa
Rain since
9am
mm
Dir  Spd
km/h
Gust
km/h
Spd
kts
Gust
kts
14/11:30pm 25.8 30.9 22.7 83 2.1 CALM 0 0 0 0 - - 0.8
14/11:00pm 25.3 31.0 23.7 91 1.1 CALM 0 0 0 0 - - 0.8
14/10:30pm 25.7 31.1 23.2 86 1.7 CALM 0 0 0 0 - - 0.8
14/10:00pm 25.7 31.0 24.3 92 1.0 N 4 7 2 4 - - 0.8
14/09:30pm 25.7 29.8 23.9 90 1.2 NNW 9 13 5 7 - - 0.4
14/09:00pm 26.1 30.3 23.4 85 1.9 NW 7 13 4 7 - - 0.0

Other Formats:

Comma delimited format used in spreadsheet applications
http://www.bom.gov.au/fwo/IDQ60801/IDQ60801.94272.axf

JavaScript Object Notation format (JSON) in row-major order
http://www.bom.gov.au/fwo/IDQ60801/IDQ60801.94272.json